DW4965 Weather Reports


Display with metric or nautical units.
time (UTC)temp
F
wind
direction
speed
MPH
gust
MPH
rain 1hr
in
rain 24hr
in
rain mn
in
humidity
%
barometer
mb
20210421164714 44 107 0.0 1.0 0.02 0.22 0.21 100 1002.5
20210421162648 44 96 0.0 2.0 0.01 0.21 0.20 100 1003.0
20210421162531 44 166 0.0 0.0 0.01 0.21 0.20 100 1003.4
20210421160136 43 252 0.0 3.0 0.04 0.20 0.19 100 1004.3
20210421153608 43 108 1.0 3.0 0.05 0.20 0.19 100 1004.0
20210421152158 43 287 1.0 4.0 0.08 0.20 0.19 100 1004.2
20210421144109 41 113 1.0 3.0 0.05 0.16 0.15 4 1005.0
20210421143530 41 110 2.0 4.0 0.04 0.15 0.14 8 1005.2
20210421142718 41 103 2.0 4.0 0.03 0.14 0.13 10 1005.4
20210421141653 42 228 2.0 4.0 0.00 0.11 0.10 53 1006.7
20210421134632 43 262 0.0 4.0 0.00 0.11 0.10 53 1006.7
20210421134125 43 255 2.0 4.0 0.00 0.11 0.10 59 1006.7
20210421133640 44 80 0.0 4.0 0.00 0.11 0.10 58 1006.7
20210421133217 44 0 1.0 4.0 0.00 0.11 0.10 58 1006.5
20210421132712 43 110 0.0 2.0 0.00 0.11 0.10 54 1006.1
20210421132129 44 276 0.0 1.0 0.00 0.11 0.10 42 1006.7
20210421131841 42 87 0.0 3.0 0.00 0.11 0.10 36 1006.8
20210421124449 39 85 0.0 3.0 0.00 0.11 0.10 9 1007.4
20210421124136 39 72 2.0 5.0 0.00 0.11 0.10 7 1007.4
20210421123741 39 109 1.0 5.0 0.00 0.11 0.10 3 1007.6
20210421123219 39 105 1.0 4.0 0.00 0.11 0.10 5 1007.7
20210421122740 39 105 2.0 4.0 0.00 0.11 0.10 4 1007.8
20210421122239 39 29 3.0 4.0 0.00 0.11 0.10 100 1008.0
20210421121732 39 134 2.0 4.0 0.00 0.11 0.10 100 1008.0
20210421120922 39 109 3.0 4.0 0.00 0.11 0.10 100 1008.1
20210421120505 38 117 0.0 3.0 0.00 0.11 0.10 100 1008.5
20210421114632 38 116 1.0 3.0 0.00 0.11 0.10 100 1008.6
20210421114131 38 102 2.0 3.0 0.00 0.11 0.10 100 1008.6
20210421113713 38 108 0.0 2.0 0.00 0.11 0.10 100 1008.8
20210421113149 38 0 0.0 0.0 0.00 0.11 0.10 100 1009.0
20210421112711 37 0 0.0 1.0 0.00 0.11 0.10 100 1009.1
20210421112125 37 0 0.0 1.0 0.00 0.11 0.10 100 1009.2
20210421111736 37 0 0.0 1.0 0.00 0.11 0.10 100 1009.4
20210421110850 36 0 0.0 1.0 0.00 0.12 0.10 100 1009.4
20210421104733 36 0 0.0 1.0 0.00 0.12 0.10 100 1009.3
20210421104123 36 0 0.0 1.0 0.00 0.12 0.10 100 1009.3
20210421103620 36 0 0.0 1.0 0.00 0.12 0.10 100 1009.2
20210421103210 35 0 0.0 1.0 0.00 0.12 0.10 100 1009.2
20210421102552 35 0 0.0 1.0 0.00 0.12 0.10 100 1009.3
20210421102059 36 0 0.0 0.0 0.00 0.12 0.10 100 1009.2
20210421101748 36 0 0.0 0.0 0.00 0.12 0.10 100 1009.2
20210421101127 35 0 0.0 0.0 0.00 0.12 0.10 100 1009.2
20210421100614 36 101 0.0 0.0 0.00 0.12 0.10 100 1009.4
20210421094651 36 0 0.0 1.0 0.00 0.12 0.10 100 1009.6
20210421094102 36 0 0.0 1.0 0.00 0.12 0.10 100 1009.7
20210421093551 36 0 0.0 1.0 0.01 0.12 0.10 100 1009.7
20210421093138 36 0 0.0 1.0 0.01 0.12 0.10 100 1010.0
20210421092552 36 0 0.0 1.0 0.01 0.12 0.10 100 1010.0
20210421092114 36 98 0.0 1.0 0.01 0.12 0.10 100 1010.1
20210421091633 36 99 1.0 1.0 0.01 0.12 0.10 100 1009.9
20210421091136 36 0 0.0 1.0 0.01 0.12 0.10 100 1009.7
20210421090701 37 99 0.0 1.0 0.01 0.12 0.10 100 1009.7
20210421085336 37 99 0.0 0.0 0.01 0.12 0.10 100 1009.9
20210421084114 37 0 0.0 0.0 0.01 0.12 0.10 100 1010.0
20210421083607 37 0 0.0 0.0 0.00 0.11 0.09 100 1010.2
20210421083226 36 0 0.0 1.0 0.00 0.11 0.09 100 1010.2
20210421082637 36 0 0.0 1.0 0.00 0.11 0.09 1 1010.3
20210421082107 36 93 0.0 1.0 0.00 0.11 0.09 2 1010.3
20210421081752 36 0 0.0 1.0 0.00 0.11 0.09 3 1010.3
20210421081149 36 94 0.0 1.0 0.00 0.11 0.09 3 1010.4
20210421080825 37 0 0.0 0.0 0.00 0.11 0.09 6 1010.5
20210421074850 37 0 0.0 0.0 0.00 0.11 0.09 6 1010.5
20210421074053 37 0 0.0 1.0 0.00 0.11 0.09 7 1010.7
20210421073616 37 0 0.0 1.0 0.00 0.11 0.09 8 1010.7
20210421073118 37 95 0.0 1.0 0.00 0.11 0.09 8 1010.8
20210421072555 37 0 0.0 0.0 0.00 0.11 0.09 8 1010.7
20210421072113 37 0 0.0 0.0 0.00 0.11 0.09 7 1010.9
20210421071654 37 0 0.0 0.0 0.00 0.11 0.09 7 1010.8
20210421071132 37 0 0.0 0.0 0.00 0.11 0.09 7 1011.1
20210421070739 37 0 0.0 1.0 0.00 0.11 0.09 8 1011.3
20210421070559 37 0 0.0 1.0 0.00 0.11 0.09 7 1011.4
20210421064624 37 0 0.0 0.0 0.00 0.11 0.09 7 1011.3
20210421064105 37 0 0.0 0.0 0.00 0.11 0.09 7 1011.3
20210421063558 37 0 0.0 0.0 0.00 0.11 0.09 6 1011.5
20210421063223 37 0 0.0 1.0 0.01 0.11 0.09 6 1011.7
20210421062913 37 0 0.0 2.0 0.02 0.11 0.09 6 1011.6
20210421062421 37 0 0.0 2.0 0.02 0.11 0.09 5 1011.3
20210421061706 37 94 0.0 1.0 0.02 0.11 0.09 4 1011.5
20210421061136 37 260 0.0 2.0 0.02 0.11 0.09 5 1011.6
20210421060602 37 0 1.0 3.0 0.02 0.11 0.09 7 1011.8
20210421060251 37 93 0.0 1.0 0.02 0.11 0.09 14 1012.2
20210421055340 37 162 0.0 1.0 0.03 0.11 0.09 15 1012.7
20210421054742 37 162 0.0 1.0 0.05 0.11 0.09 17 1012.8
20210421054106 37 0 0.0 1.0 0.06 0.11 0.09 18 1012.9
20210421053554 38 0 0.0 0.0 0.06 0.11 0.09 17 1013.0
20210421053209 38 0 0.0 1.0 0.05 0.10 0.08 14 1012.8
20210421053016 38 0 0.0 2.0 0.04 0.09 0.07 16 1013.1
20210421052453 38 0 0.0 2.0 0.04 0.09 0.07 19 1012.7
20210421051743 38 180 0.0 2.0 0.05 0.09 0.07 21 1012.8
20210421051106 38 0 0.0 1.0 0.05 0.09 0.07 27 1012.3
20210421050600 38 0 0.0 2.0 0.06 0.09 0.07 29 1012.3
20210421050219 38 0 0.0 2.0 0.07 0.09 0.07 30 1012.3
20210421045903 38 315 0.0 2.0 0.07 0.09 0.07 33 1012.5
20210421045326 38 0 0.0 2.0 0.07 0.08 0.06 29 1012.8
20210421044718 38 250 1.0 2.0 0.05 0.06 0.04 30 1012.9
20210421044105 39 0 0.0 1.0 0.04 0.05 0.03 35 1012.9
20210421043556 39 262 0.0 1.0 0.04 0.05 0.03 44 1012.5
20210421043113 38 0 0.0 1.0 0.04 0.05 0.03 45 1011.9
20210421042847 39 321 0.0 0.0 0.04 0.05 0.03 42 1012.1
20210421042247 39 0 0.0 3.0 0.04 0.05 0.03 48 1012.2
20210421041704 39 0 0.0 3.0 0.03 0.04 0.02 54 1012.2
20210421041057 40 0 1.0 6.0 0.03 0.04 0.02 66 1012.6
20210421040553 40 259 1.0 6.0 0.02 0.03 0.01 69 1012.9
20210421040123 41 256 0.0 2.0 0.01 0.02 0.00 72 1012.5
20210421035848 42 264 0.0 3.0 0.01 0.02 0.02 72 1012.3
20210421035135 42 0 2.0 3.0 0.00 0.01 0.01 71 1012.5
20210421034648 42 236 0.0 1.0 0.00 0.01 0.01 68 1012.4
20210421034053 42 236 1.0 1.0 0.00 0.01 0.01 68 1011.9
20210421033553 42 0 0.0 1.0 0.00 0.01 0.01 66 1012.4
20210421033118 42 0 0.0 1.0 0.00 0.01 0.01 67 1012.7
20210421032742 42 236 1.0 2.0 0.00 0.01 0.01 65 1012.8
20210421032214 42 0 0.0 2.0 0.00 0.01 0.01 64 1012.4
20210421031637 42 0 0.0 1.0 0.00 0.01 0.01 62 1012.5
20210421031054 43 272 0.0 3.0 0.00 0.01 0.01 59 1012.2
20210421030607 43 221 1.0 3.0 0.00 0.01 0.01 59 1012.2
20210421030152 44 0 0.0 1.0 0.00 0.01 0.01 56 1012.2
20210421025853 43 285 0.0 1.0 0.00 0.01 0.01 56 1012.1
20210421025419 44 0 0.0 1.0 0.00 0.01 0.01 55 1012.2
20210421024615 44 285 0.0 2.0 0.00 0.01 0.01 56 1012.2
20210421024056 44 0 0.0 2.0 0.00 0.01 0.01 56 1012.2
20210421023618 44 290 0.0 2.0 0.00 0.01 0.01 56 1012.3
20210421023209 44 323 0.0 2.0 0.00 0.01 0.01 54 1012.2
20210421022815 45 0 0.0 2.0 0.00 0.01 0.01 56 1012.3
20210421022256 45 0 0.0 4.0 0.00 0.01 0.01 53 1012.3
20210421021645 46 278 1.0 4.0 0.00 0.01 0.01 53 1012.5
20210421021057 46 291 0.0 3.0 0.00 0.01 0.01 52 1012.4
20210421020552 46 63 1.0 3.0 0.00 0.01 0.01 55 1012.5
20210421020141 46 208 0.0 2.0 0.00 0.01 0.01 54 1012.3
20210421015849 46 0 1.0 8.0 0.00 0.01 0.01 53 1012.4
20210421015353 46 342 3.0 8.0 0.00 0.01 0.01 55 1012.2
20210421014709 46 287 2.0 8.0 0.00 0.01 0.01 56 1012.3
20210421014056 46 248 1.0 12.0 0.00 0.01 0.01 55 1012.4
20210421013554 46 117 4.0 12.0 0.00 0.01 0.01 56 1012.2
20210421013143 46 282 4.0 8.0 0.00 0.01 0.01 56 1012.2
20210421012716 46 304 2.0 7.0 0.00 0.01 0.01 58 1012.1
20210421012207 45 300 2.0 7.0 0.00 0.01 0.01 61 1012.1
20210421011655 45 287 1.0 7.0 0.00 0.01 0.01 62 1012.0
20210421011053 45 246 1.0 5.0 0.00 0.01 0.01 64 1012.0
20210421010553 45 269 1.0 5.0 0.00 0.01 0.01 65 1012.2
20210421010120 45 285 1.0 5.0 0.00 0.01 0.01 66 1012.2
20210421005929 45 271 1.0 5.0 0.00 0.01 0.01 66 1012.1
20210421005514 44 229 0.0 5.0 0.00 0.01 0.01 69 1011.9
20210421004641 44 248 0.0 3.0 0.00 0.01 0.01 70 1011.9
20210421004103 45 0 1.0 3.0 0.00 0.01 0.01 70 1011.8
20210421003600 45 0 0.0 1.0 0.00 0.01 0.01 70 1011.9
20210421003142 45 0 0.0 2.0 0.00 0.01 0.01 69 1011.8
20210421002751 45 0 0.0 2.0 0.00 0.01 0.01 69 1011.7
20210421002318 46 0 0.0 1.0 0.00 0.01 0.01 67 1011.7
20210421001633 47 18 0.0 2.0 0.00 0.01 0.01 65 1011.6
20210421001105 47 18 0.0 3.0 0.00 0.01 0.01 64 1011.6
20210421000609 48 290 1.0 5.0 0.00 0.01 0.01 63 1011.6
20210421000144 48 262 1.0 5.0 0.00 0.01 0.01 63 1011.6
20210420235811 48 106 0.0 3.0 0.00 0.01 0.01 63 1011.5
20210420235359 49 256 1.0 3.0 0.00 0.01 0.01 63 1011.6
20210420234623 49 273 0.0 3.0 0.00 0.01 0.01 64 1011.6
20210420234059 49 326 0.0 2.0 0.00 0.01 0.01 64 1011.7
20210420233624 50 0 0.0 6.0 0.00 0.01 0.01 63 1011.5
20210420233121 50 0 1.0 8.0 0.00 0.01 0.01 61 1011.4
20210420232844 50 256 4.0 8.0 0.00 0.01 0.01 60 1011.4
20210420232446 50 193 4.0 7.0 0.00 0.01 0.01 61 1011.5
20210420231735 50 257 3.0 7.0 0.00 0.01 0.01 60 1011.7
20210420231054 50 250 2.0 10.0 0.00 0.01 0.01 61 1011.7
20210420230551 51 256 4.0 10.0 0.00 0.01 0.01 59 1011.7
20210420230256 51 218 5.0 11.0 0.00 0.01 0.01 60 1011.6
20210420225716 51 257 4.0 11.0 0.00 0.01 0.01 60 1011.6
20210420225352 51 254 3.0 9.0 0.00 0.01 0.01 60 1011.7
20210420224619 51 291 3.0 9.0 0.00 0.01 0.01 59 1011.6
20210420224056 51 266 3.0 7.0 0.00 0.01 0.01 59 1011.6
20210420223555 51 250 3.0 7.0 0.00 0.01 0.01 61 1011.6
20210420223133 51 264 1.0 6.0 0.00 0.01 0.01 59 1011.6
20210420222653 51 290 3.0 6.0 0.00 0.01 0.01 58 1011.5
20210420222233 51 257 2.0 9.0 0.00 0.01 0.01 59 1011.4
20210420221803 51 249 5.0 9.0 0.00 0.01 0.01 59 1011.3
20210420221059 52 276 2.0 6.0 0.00 0.01 0.01 60 1011.4
20210420220553 52 203 3.0 11.0 0.00 0.01 0.01 58 1011.2
20210420220137 52 213 6.0 11.0 0.00 0.01 0.01 58 1011.2
20210420215751 52 257 4.0 11.0 0.00 0.01 0.01 58 1011.3
20210420215245 52 239 3.0 9.0 0.00 0.01 0.01 58 1011.2
20210420214816 52 267 5.0 9.0 0.00 0.01 0.01 58 1011.2
20210420214101 52 195 3.0 11.0 0.00 0.01 0.01 58 1011.1
20210420213557 52 250 4.0 12.0 0.00 0.01 0.01 58 1011.1
20210420213131 53 260 6.0 12.0 0.00 0.01 0.01 58 1010.9
20210420212759 53 271 5.0 14.0 0.00 0.01 0.01 57 1010.8
20210420212440 53 226 6.0 14.0 0.00 0.01 0.01 56 1010.9
20210420211708 54 246 5.0 16.0 0.00 0.01 0.01 55 1010.8
20210420211057 54 260 7.0 16.0 0.00 0.01 0.01 56 1010.8
20210420210550 55 246 7.0 12.0 0.00 0.01 0.01 56 1010.7
20210420210221 55 211 6.0 13.0 0.00 0.01 0.01 57 1010.7
20210420205559 54 214 7.0 17.0 0.00 0.01 0.01 58 1010.6
20210420205209 55 240 7.0 17.0 0.00 0.01 0.01 58 1010.7
20210420204605 55 264 6.0 13.0 0.00 0.01 0.01 59 1010.7
20210420204050 55 259 5.0 11.0 0.00 0.01 0.01 59 1010.7
20210420203555 54 243 6.0 12.0 0.00 0.01 0.01 60 1010.7
20210420203219 54 228 5.0 12.0 0.00 0.01 0.01 61 1010.7
20210420202645 53 243 6.0 13.0 0.00 0.01 0.01 62 1010.7
20210420202157 53 228 5.0 13.0 0.00 0.01 0.01 62 1010.8
20210420201619 52 254 6.0 13.0 0.00 0.01 0.01 62 1010.8
20210420201056 52 253 7.0 13.0 0.00 0.01 0.01 64 1010.8
20210420200549 52 249 6.0 16.0 0.00 0.01 0.01 63 1010.8
20210420200151 52 262 7.0 16.0 0.00 0.01 0.01 62 1010.9
20210420195708 52 256 8.0 16.0 0.00 0.01 0.01 62 1010.9
20210420195130 52 226 8.0 16.0 0.00 0.01 0.01 62 1010.9
20210420194630 52 278 7.0 20.0 0.00 0.01 0.01 62 1010.9
20210420194054 53 266 7.0 20.0 0.00 0.01 0.01 62 1010.8
20210420193555 53 229 5.0 16.0 0.00 0.01 0.01 63 1010.8
20210420193241 53 273 7.0 16.0 0.00 0.01 0.01 62 1010.6
20210420192714 53 224 6.0 20.0 0.00 0.01 0.01 63 1010.7
20210420192234 53 267 8.0 20.0 0.00 0.01 0.01 63 1010.5
20210420191805 53 274 6.0 16.0 0.00 0.01 0.01 63 1010.5
20210420191102 54 210 7.0 16.0 0.00 0.01 0.01 62 1010.3
20210420190553 54 228 7.0 14.0 0.00 0.01 0.01 62 1010.4
20210420190131 55 249 4.0 16.0 0.00 0.01 0.01 61 1010.3
20210420185645 55 301 7.0 18.0 0.00 0.01 0.01 60 1010.2
20210420185135 55 205 8.0 18.0 0.00 0.01 0.01 60 1010.2
20210420184641 56 233 6.0 15.0 0.00 0.01 0.01 59 1010.1
20210420184059 56 242 6.0 15.0 0.00 0.01 0.01 58 1010.1
20210420183555 57 241 5.0 20.0 0.00 0.01 0.01 58 1009.9
20210420183149 57 249 7.0 20.0 0.00 0.01 0.01 57 1009.9
20210420182746 58 273 7.0 14.0 0.00 0.01 0.01 56 1009.5
20210420182253 58 248 6.0 14.0 0.00 0.01 0.01 56 1009.7
20210420181747 58 266 6.0 14.0 0.00 0.01 0.01 57 1009.6
20210420181100 58 242 5.0 10.0 0.00 0.01 0.01 57 1009.5
20210420180608 57 252 4.0 13.0 0.00 0.01 0.01 59 1009.5
20210420180141 57 262 5.0 13.0 0.00 0.01 0.01 57 1009.5
20210420175647 57 263 5.0 16.0 0.00 0.01 0.01 60 1009.5
20210420175056 56 311 6.0 18.0 0.00 0.01 0.01 60 1009.4
20210420174645 56 274 8.0 18.0 0.00 0.01 0.01 58 1009.2
20210420174059 56 232 6.0 17.0 0.00 0.01 0.01 59 1009.0
20210420173554 56 265 5.0 11.0 0.00 0.01 0.01 59 1009.1
20210420173307 56 226 3.0 9.0 0.00 0.01 0.01 60 1009.2
20210420172720 56 225 2.0 7.0 0.00 0.01 0.01 62 1009.2
20210420172226 56 259 2.0 7.0 0.00 0.01 0.01 61 1009.2
20210420171635 55 294 4.0 7.0 0.00 0.01 0.01 61 1009.3
20210420171052 56 250 2.0 6.0 0.00 0.01 0.01 63 1009.4